Agios Nikolas — SVAV5 — position and weather

sailwx.info

Track history (hours):
 
Tides and Currents Weather Stations Pressure Air Temp Water Temp Dewpoint Dewpoint Depression Visibility Wind Speed Wind Dir Waves Ship Positions

Agios Nikolas

Last reported at 2014-Aug-30 03:16 UTC. Time now 2014-Aug-30 04:34 UTC.
Position N 59°53' E 030°11'.

Length 225 m; draft 7.7 m.

Type: Cargo ship. MMSI: 240963000.

Date/timePositionNaut miles runAvg speedWind from/ knotsBaromVisibWave heightAir tempDewpointWater temp
2014-Aug-30 03:16N 59°53' E 030°11'0 0.0
2014-Aug-30 02:16N 59°53' E 030°11'0 0.0
2014-Aug-30 01:28N 59°53' E 030°11'0 0.0
2014-Aug-29 18:31N 59°53' E 030°11'0 0.0
2014-Aug-29 17:28N 59°53' E 030°11'0 0.0
2014-Aug-29 06:28N 59°53' E 030°11'0 0.0
2014-Aug-29 02:16N 59°53' E 030°11'0 0.0
2014-Aug-29 01:16N 59°53' E 030°11'0 0.0
2014-Aug-29 00:28N 59°53' E 030°11'0 0.0
2014-Aug-28 23:16N 59°53' E 030°11'0 0.0
2014-Aug-28 22:31N 59°53' E 030°11'0 0.0
2014-Aug-28 20:28N 59°53' E 030°11'0 0.0
2014-Aug-28 19:31N 59°53' E 030°11'0 0.0
2014-Aug-28 18:31N 59°53' E 030°11'0 0.0
2014-Aug-28 09:28N 59°53' E 030°11'0 0.0
2014-Aug-28 08:25N 59°53' E 030°11'0 0.0
2014-Aug-27 17:25N 59°53' E 030°11'0 0.0
2014-Aug-27 16:28N 59°53' E 030°11'0 0.0
2014-Aug-27 15:31N 59°53' E 030°11'0 0.1
2014-Aug-27 14:31N 59°53' E 030°11'  
2014-Aug-22 20:31N 60°01' E 027°14'1211.8
2014-Aug-22 19:29N 59°59' E 026°50'1112.3
2014-Aug-22 18:34N 59°58' E 026°27'1312.9
2014-Aug-22 17:33N 59°54' E 026°02'4013.1
2014-Aug-22 14:31N 59°45' E 024°45'1313.4
2014-Aug-22 13:33N 59°43' E 024°20'1813.2
2014-Aug-22 12:14N 59°37' E 023°47'912.9
2014-Aug-22 11:34N 59°34' E 023°31'34611.9
2014-Aug-21 06:26N 55°38' E 015°39'1112.7
2014-Aug-21 05:33N 55°34' E 015°21'1312.7
2014-Aug-21 04:33N 55°29' E 015°00'1212.4
2014-Aug-21 03:33N 55°24' E 014°40'1212.1
2014-Aug-21 02:33N 55°15' E 014°26'3612.1
2014-Aug-20 23:33N 55°11' E 013°23'1312.7
2014-Aug-20 22:33N 55°13' E 013°01'1313.4
2014-Aug-20 21:33N 55°17' E 012°39'1111.2
2014-Aug-20 20:34N 55°28' E 012°41'10 9.9
2014-Aug-20 19:34N 55°38' E 012°42'1111.4
2014-Aug-20 18:34N 55°50' E 012°42'1111.3
2014-Aug-20 17:33N 56°01' E 012°40'1110.7
2014-Aug-20 16:34N 56°09' E 012°27'9 9.1
2014-Aug-20 15:34N 56°12' E 012°12'  
Track history (hours):
 
Tides and Currents Weather Stations Pressure Air Temp Water Temp Dewpoint Dewpoint Depression Visibility Wind Speed Wind Dir Waves Ship Positions

Agios Nikolas

Last reported at 2014-Aug-30 03:16 UTC. Time now 2014-Aug-30 04:34 UTC.
Position N 59°53' E 030°11'.

Length 225 m; draft 7.7 m.

Type: Cargo ship. MMSI: 240963000.

Date/timePositionNaut miles runAvg speedWind from/ knotsBaromVisibWave heightAir tempDewpointWater temp
2014-Aug-30 03:16N 59°53' E 030°11'0 0.0
2014-Aug-30 02:16N 59°53' E 030°11'0 0.0
2014-Aug-30 01:28N 59°53' E 030°11'0 0.0
2014-Aug-29 18:31N 59°53' E 030°11'0 0.0
2014-Aug-29 17:28N 59°53' E 030°11'0 0.0
2014-Aug-29 06:28N 59°53' E 030°11'0 0.0
2014-Aug-29 02:16N 59°53' E 030°11'0 0.0
2014-Aug-29 01:16N 59°53' E 030°11'0 0.0
2014-Aug-29 00:28N 59°53' E 030°11'0 0.0
2014-Aug-28 23:16N 59°53' E 030°11'0 0.0
2014-Aug-28 22:31N 59°53' E 030°11'0 0.0
2014-Aug-28 20:28N 59°53' E 030°11'0 0.0
2014-Aug-28 19:31N 59°53' E 030°11'0 0.0
2014-Aug-28 18:31N 59°53' E 030°11'0 0.0
2014-Aug-28 09:28N 59°53' E 030°11'0 0.0
2014-Aug-28 08:25N 59°53' E 030°11'0 0.0
2014-Aug-27 17:25N 59°53' E 030°11'0 0.0
2014-Aug-27 16:28N 59°53' E 030°11'0 0.0
2014-Aug-27 15:31N 59°53' E 030°11'0 0.1
2014-Aug-27 14:31N 59°53' E 030°11'  
2014-Aug-22 20:31N 60°01' E 027°14'1211.8
2014-Aug-22 19:29N 59°59' E 026°50'1112.3
2014-Aug-22 18:34N 59°58' E 026°27'1312.9
2014-Aug-22 17:33N 59°54' E 026°02'4013.1
2014-Aug-22 14:31N 59°45' E 024°45'1313.4
2014-Aug-22 13:33N 59°43' E 024°20'1813.2
2014-Aug-22 12:14N 59°37' E 023°47'912.9
2014-Aug-22 11:34N 59°34' E 023°31'34611.9
2014-Aug-21 06:26N 55°38' E 015°39'1112.7
2014-Aug-21 05:33N 55°34' E 015°21'1312.7
2014-Aug-21 04:33N 55°29' E 015°00'1212.4
2014-Aug-21 03:33N 55°24' E 014°40'1212.1
2014-Aug-21 02:33N 55°15' E 014°26'3612.1
2014-Aug-20 23:33N 55°11' E 013°23'1312.7
2014-Aug-20 22:33N 55°13' E 013°01'1313.4
2014-Aug-20 21:33N 55°17' E 012°39'1111.2
2014-Aug-20 20:34N 55°28' E 012°41'10 9.9
2014-Aug-20 19:34N 55°38' E 012°42'1111.4
2014-Aug-20 18:34N 55°50' E 012°42'1111.3
2014-Aug-20 17:33N 56°01' E 012°40'1110.7
2014-Aug-20 16:34N 56°09' E 012°27'9 9.1
2014-Aug-20 15:34N 56°12' E 012°12'  

Dump ship's entire track history